sensor_id;sensor_type;location;lat;lon;timestamp;P1;durP1;ratioP1;P2;durP2;ratioP2
50821;SDS011;36794;51.212;6.980;2022-12-10T00:00:37;65.73;;;28.50;;
50821;SDS011;36794;51.212;6.980;2022-12-10T00:03:03;58.83;;;26.73;;
50821;SDS011;36794;51.212;6.980;2022-12-10T00:05:29;70.57;;;30.07;;
50821;SDS011;36794;51.212;6.980;2022-12-10T00:07:55;66.47;;;29.23;;
50821;SDS011;36794;51.212;6.980;2022-12-10T00:10:21;68.67;;;29.07;;
50821;SDS011;36794;51.212;6.980;2022-12-10T00:12:47;63.37;;;26.47;;
50821;SDS011;36794;51.212;6.980;2022-12-10T00:15:13;66.67;;;28.57;;
50821;SDS011;36794;51.212;6.980;2022-12-10T00:17:39;62.80;;;27.63;;
50821;SDS011;36794;51.212;6.980;2022-12-10T00:20:05;64.73;;;28.10;;
50821;SDS011;36794;51.212;6.980;2022-12-10T00:22:31;67.57;;;27.57;;
50821;SDS011;36794;51.212;6.980;2022-12-10T00:24:57;60.57;;;26.00;;
50821;SDS011;36794;51.212;6.980;2022-12-10T00:27:23;63.80;;;26.17;;
50821;SDS011;36794;51.212;6.980;2022-12-10T00:29:48;58.90;;;27.30;;
50821;SDS011;36794;51.212;6.980;2022-12-10T00:32:14;62.47;;;28.27;;
50821;SDS011;36794;51.212;6.980;2022-12-10T00:34:40;60.03;;;26.77;;
50821;SDS011;36794;51.212;6.980;2022-12-10T00:37:06;71.13;;;28.43;;
50821;SDS011;36794;51.212;6.980;2022-12-10T00:39:32;64.17;;;27.43;;
50821;SDS011;36794;51.212;6.980;2022-12-10T00:41:59;60.77;;;29.00;;
50821;SDS011;36794;51.212;6.980;2022-12-10T00:44:24;57.77;;;26.37;;
50821;SDS011;36794;51.212;6.980;2022-12-10T00:46:50;61.30;;;27.13;;
50821;SDS011;36794;51.212;6.980;2022-12-10T00:49:16;60.07;;;26.13;;
50821;SDS011;36794;51.212;6.980;2022-12-10T00:51:42;63.87;;;26.63;;
50821;SDS011;36794;51.212;6.980;2022-12-10T00:54:08;62.77;;;28.10;;
50821;SDS011;36794;51.212;6.980;2022-12-10T00:56:36;64.90;;;27.27;;
50821;SDS011;36794;51.212;6.980;2022-12-10T00:59:02;66.50;;;28.17;;
50821;SDS011;36794;51.212;6.980;2022-12-10T01:03:55;66.77;;;27.13;;
50821;SDS011;36794;51.212;6.980;2022-12-10T01:06:26;62.70;;;27.40;;
50821;SDS011;36794;51.212;6.980;2022-12-10T01:08:53;63.27;;;26.87;;
50821;SDS011;36794;51.212;6.980;2022-12-10T01:11:19;59.83;;;26.43;;
50821;SDS011;36794;51.212;6.980;2022-12-10T01:13:46;62.53;;;27.70;;
50821;SDS011;36794;51.212;6.980;2022-12-10T01:16:13;62.60;;;27.07;;
50821;SDS011;36794;51.212;6.980;2022-12-10T01:18:40;64.30;;;27.57;;
50821;SDS011;36794;51.212;6.980;2022-12-10T01:21:07;60.80;;;27.40;;
50821;SDS011;36794;51.212;6.980;2022-12-10T01:23:34;66.10;;;27.90;;
50821;SDS011;36794;51.212;6.980;2022-12-10T01:26:04;64.43;;;28.90;;
50821;SDS011;36794;51.212;6.980;2022-12-10T01:28:31;59.80;;;26.17;;
50821;SDS011;36794;51.212;6.980;2022-12-10T01:31:16;65.63;;;28.93;;
50821;SDS011;36794;51.212;6.980;2022-12-10T01:33:43;59.53;;;26.53;;
50821;SDS011;36794;51.212;6.980;2022-12-10T01:36:11;61.23;;;27.37;;
50821;SDS011;36794;51.212;6.980;2022-12-10T01:38:38;69.20;;;28.60;;
50821;SDS011;36794;51.212;6.980;2022-12-10T01:41:05;65.77;;;29.20;;
50821;SDS011;36794;51.212;6.980;2022-12-10T01:46:16;61.60;;;27.98;;
50821;SDS011;36794;51.212;6.980;2022-12-10T01:48:42;61.60;;;27.30;;
50821;SDS011;36794;51.212;6.980;2022-12-10T01:51:08;62.10;;;28.20;;
50821;SDS011;36794;51.212;6.980;2022-12-10T01:53:34;63.30;;;28.33;;
50821;SDS011;36794;51.212;6.980;2022-12-10T01:56:00;64.73;;;27.60;;
50821;SDS011;36794;51.212;6.980;2022-12-10T01:58:26;58.57;;;27.13;;
50821;SDS011;36794;51.212;6.980;2022-12-10T02:00:55;57.47;;;25.93;;
50821;SDS011;36794;51.212;6.980;2022-12-10T02:06:14;58.87;;;25.93;;
50821;SDS011;36794;51.212;6.980;2022-12-10T02:09:25;61.73;;;26.43;;
50821;SDS011;36794;51.212;6.980;2022-12-10T02:11:33;54.73;;;24.67;;
50821;SDS011;36794;51.212;6.980;2022-12-10T02:14:10;57.43;;;24.83;;
50821;SDS011;36794;51.212;6.980;2022-12-10T02:16:39;55.23;;;23.93;;
50821;SDS011;36794;51.212;6.980;2022-12-10T02:21:37;55.47;;;25.73;;
50821;SDS011;36794;51.212;6.980;2022-12-10T02:24:05;53.93;;;23.40;;
50821;SDS011;36794;51.212;6.980;2022-12-10T02:29:24;54.88;;;25.23;;
50821;SDS011;36794;51.212;6.980;2022-12-10T02:31:51;60.80;;;24.93;;
50821;SDS011;36794;51.212;6.980;2022-12-10T02:34:18;59.73;;;25.87;;
50821;SDS011;36794;51.212;6.980;2022-12-10T02:36:46;56.83;;;24.57;;
50821;SDS011;36794;51.212;6.980;2022-12-10T02:39:14;56.57;;;25.23;;
50821;SDS011;36794;51.212;6.980;2022-12-10T02:41:47;56.33;;;24.87;;
50821;SDS011;36794;51.212;6.980;2022-12-10T02:44:14;64.03;;;26.73;;
50821;SDS011;36794;51.212;6.980;2022-12-10T02:46:41;56.80;;;26.23;;
50821;SDS011;36794;51.212;6.980;2022-12-10T02:49:08;61.47;;;27.17;;
50821;SDS011;36794;51.212;6.980;2022-12-10T02:51:34;56.87;;;25.57;;
50821;SDS011;36794;51.212;6.980;2022-12-10T02:54:00;57.53;;;25.50;;
50821;SDS011;36794;51.212;6.980;2022-12-10T02:56:30;65.87;;;26.10;;
50821;SDS011;36794;51.212;6.980;2022-12-10T03:09:23;62.30;;;26.67;;
50821;SDS011;36794;51.212;6.980;2022-12-10T03:11:49;59.23;;;26.10;;
50821;SDS011;36794;51.212;6.980;2022-12-10T03:14:25;59.00;;;26.93;;
50821;SDS011;36794;51.212;6.980;2022-12-10T03:16:54;63.50;;;27.17;;
50821;SDS011;36794;51.212;6.980;2022-12-10T03:19:21;60.57;;;27.60;;
50821;SDS011;36794;51.212;6.980;2022-12-10T03:21:49;62.80;;;28.40;;
50821;SDS011;36794;51.212;6.980;2022-12-10T03:24:16;67.53;;;27.87;;
50821;SDS011;36794;51.212;6.980;2022-12-10T03:26:43;61.70;;;27.27;;
50821;SDS011;36794;51.212;6.980;2022-12-10T03:29:12;67.50;;;29.00;;
50821;SDS011;36794;51.212;6.980;2022-12-10T03:31:40;66.67;;;29.30;;
50821;SDS011;36794;51.212;6.980;2022-12-10T03:34:06;70.30;;;29.23;;
50821;SDS011;36794;51.212;6.980;2022-12-10T03:36:32;65.63;;;28.93;;
50821;SDS011;36794;51.212;6.980;2022-12-10T03:38:59;68.50;;;30.33;;
50821;SDS011;36794;51.212;6.980;2022-12-10T03:41:25;79.83;;;30.37;;
50821;SDS011;36794;51.212;6.980;2022-12-10T03:43:52;72.30;;;31.70;;
50821;SDS011;36794;51.212;6.980;2022-12-10T03:46:18;73.27;;;30.80;;
50821;SDS011;36794;51.212;6.980;2022-12-10T03:48:45;72.93;;;29.97;;
50821;SDS011;36794;51.212;6.980;2022-12-10T03:51:10;70.67;;;29.90;;
50821;SDS011;36794;51.212;6.980;2022-12-10T03:53:36;72.53;;;30.77;;
50821;SDS011;36794;51.212;6.980;2022-12-10T03:56:02;72.70;;;31.47;;
50821;SDS011;36794;51.212;6.980;2022-12-10T03:58:28;77.23;;;30.03;;
50821;SDS011;36794;51.212;6.980;2022-12-10T04:00:54;69.07;;;29.23;;
50821;SDS011;36794;51.212;6.980;2022-12-10T04:03:20;74.87;;;31.53;;
50821;SDS011;36794;51.212;6.980;2022-12-10T04:05:46;75.57;;;30.97;;
50821;SDS011;36794;51.212;6.980;2022-12-10T04:08:12;73.17;;;30.03;;
50821;SDS011;36794;51.212;6.980;2022-12-10T04:10:38;74.73;;;30.83;;
50821;SDS011;36794;51.212;6.980;2022-12-10T04:13:04;75.73;;;30.50;;
50821;SDS011;36794;51.212;6.980;2022-12-10T04:15:49;71.90;;;30.05;;
50821;SDS011;36794;51.212;6.980;2022-12-10T04:18:33;71.75;;;30.35;;
50821;SDS011;36794;51.212;6.980;2022-12-10T04:21:00;74.57;;;31.53;;
50821;SDS011;36794;51.212;6.980;2022-12-10T04:23:44;72.70;;;30.55;;
50821;SDS011;36794;51.212;6.980;2022-12-10T04:26:29;78.10;;;31.23;;
50821;SDS011;36794;51.212;6.980;2022-12-10T04:29:13;67.95;;;30.20;;
50821;SDS011;36794;51.212;6.980;2022-12-10T04:31:39;71.87;;;30.93;;
50821;SDS011;36794;51.212;6.980;2022-12-10T04:34:05;73.00;;;30.87;;
50821;SDS011;36794;51.212;6.980;2022-12-10T04:36:31;77.70;;;31.47;;
50821;SDS011;36794;51.212;6.980;2022-12-10T04:38:57;72.80;;;31.03;;
50821;SDS011;36794;51.212;6.980;2022-12-10T04:41:23;72.30;;;31.57;;
50821;SDS011;36794;51.212;6.980;2022-12-10T04:43:49;76.53;;;31.37;;
50821;SDS011;36794;51.212;6.980;2022-12-10T04:46:15;73.07;;;30.60;;
50821;SDS011;36794;51.212;6.980;2022-12-10T04:48:41;70.40;;;30.33;;
50821;SDS011;36794;51.212;6.980;2022-12-10T04:51:07;76.50;;;31.93;;
50821;SDS011;36794;51.212;6.980;2022-12-10T04:53:33;71.23;;;30.43;;
50821;SDS011;36794;51.212;6.980;2022-12-10T04:55:59;73.30;;;32.27;;
50821;SDS011;36794;51.212;6.980;2022-12-10T04:58:26;76.13;;;32.47;;
50821;SDS011;36794;51.212;6.980;2022-12-10T05:01:05;74.37;;;32.07;;
50821;SDS011;36794;51.212;6.980;2022-12-10T05:03:31;77.13;;;31.87;;
50821;SDS011;36794;51.212;6.980;2022-12-10T05:06:04;75.13;;;30.30;;
50821;SDS011;36794;51.212;6.980;2022-12-10T05:08:30;74.50;;;30.57;;
50821;SDS011;36794;51.212;6.980;2022-12-10T05:11:00;77.27;;;32.10;;
50821;SDS011;36794;51.212;6.980;2022-12-10T05:13:27;75.13;;;31.80;;
50821;SDS011;36794;51.212;6.980;2022-12-10T05:15:52;75.93;;;32.23;;
50821;SDS011;36794;51.212;6.980;2022-12-10T05:18:18;81.53;;;34.03;;
50821;SDS011;36794;51.212;6.980;2022-12-10T05:20:44;80.30;;;33.40;;
50821;SDS011;36794;51.212;6.980;2022-12-10T05:23:10;82.37;;;32.80;;
50821;SDS011;36794;51.212;6.980;2022-12-10T05:28:24;75.03;;;31.93;;
50821;SDS011;36794;51.212;6.980;2022-12-10T05:30:50;71.30;;;31.53;;
50821;SDS011;36794;51.212;6.980;2022-12-10T05:33:16;74.67;;;32.10;;
50821;SDS011;36794;51.212;6.980;2022-12-10T05:35:42;78.17;;;33.23;;
50821;SDS011;36794;51.212;6.980;2022-12-10T05:38:08;74.97;;;31.23;;
50821;SDS011;36794;51.212;6.980;2022-12-10T05:40:36;73.57;;;31.80;;
50821;SDS011;36794;51.212;6.980;2022-12-10T05:43:02;75.83;;;32.07;;
50821;SDS011;36794;51.212;6.980;2022-12-10T05:45:28;82.20;;;33.23;;
50821;SDS011;36794;51.212;6.980;2022-12-10T05:47:54;77.43;;;33.07;;
50821;SDS011;36794;51.212;6.980;2022-12-10T05:50:20;79.47;;;31.93;;
50821;SDS011;36794;51.212;6.980;2022-12-10T05:52:46;76.67;;;31.90;;
50821;SDS011;36794;51.212;6.980;2022-12-10T05:55:11;78.13;;;32.83;;
50821;SDS011;36794;51.212;6.980;2022-12-10T05:57:37;77.93;;;32.33;;
50821;SDS011;36794;51.212;6.980;2022-12-10T06:00:04;77.67;;;33.10;;
50821;SDS011;36794;51.212;6.980;2022-12-10T06:02:33;77.70;;;33.57;;
50821;SDS011;36794;51.212;6.980;2022-12-10T06:04:59;85.17;;;33.87;;
50821;SDS011;36794;51.212;6.980;2022-12-10T06:07:25;76.83;;;31.83;;
50821;SDS011;36794;51.212;6.980;2022-12-10T06:09:51;77.80;;;31.73;;
50821;SDS011;36794;51.212;6.980;2022-12-10T06:12:18;77.93;;;31.97;;
50821;SDS011;36794;51.212;6.980;2022-12-10T06:14:43;75.67;;;31.23;;
50821;SDS011;36794;51.212;6.980;2022-12-10T06:17:09;76.90;;;31.97;;
50821;SDS011;36794;51.212;6.980;2022-12-10T06:19:35;78.33;;;31.73;;
50821;SDS011;36794;51.212;6.980;2022-12-10T06:22:01;81.70;;;32.17;;
50821;SDS011;36794;51.212;6.980;2022-12-10T06:24:28;78.10;;;32.13;;
50821;SDS011;36794;51.212;6.980;2022-12-10T06:26:54;79.27;;;32.77;;
50821;SDS011;36794;51.212;6.980;2022-12-10T06:29:20;75.93;;;32.13;;
50821;SDS011;36794;51.212;6.980;2022-12-10T06:31:46;79.57;;;31.47;;
50821;SDS011;36794;51.212;6.980;2022-12-10T06:34:12;77.40;;;30.23;;
50821;SDS011;36794;51.212;6.980;2022-12-10T06:36:38;73.00;;;29.80;;
50821;SDS011;36794;51.212;6.980;2022-12-10T06:39:03;74.37;;;32.37;;
50821;SDS011;36794;51.212;6.980;2022-12-10T06:41:29;76.50;;;31.33;;
50821;SDS011;36794;51.212;6.980;2022-12-10T06:43:55;76.00;;;30.87;;
50821;SDS011;36794;51.212;6.980;2022-12-10T06:46:23;72.30;;;30.23;;
50821;SDS011;36794;51.212;6.980;2022-12-10T06:48:50;71.53;;;31.57;;
50821;SDS011;36794;51.212;6.980;2022-12-10T06:51:16;70.90;;;31.03;;
50821;SDS011;36794;51.212;6.980;2022-12-10T06:53:42;70.67;;;29.47;;
50821;SDS011;36794;51.212;6.980;2022-12-10T06:56:15;73.67;;;29.43;;
50821;SDS011;36794;51.212;6.980;2022-12-10T06:58:42;75.40;;;30.80;;
50821;SDS011;36794;51.212;6.980;2022-12-10T07:01:18;69.70;;;29.57;;
50821;SDS011;36794;51.212;6.980;2022-12-10T07:03:49;65.53;;;27.83;;
50821;SDS011;36794;51.212;6.980;2022-12-10T07:06:16;68.33;;;28.40;;
50821;SDS011;36794;51.212;6.980;2022-12-10T07:08:42;69.73;;;29.23;;
50821;SDS011;36794;51.212;6.980;2022-12-10T07:11:09;68.83;;;28.43;;
50821;SDS011;36794;51.212;6.980;2022-12-10T07:13:36;67.30;;;28.83;;
50821;SDS011;36794;51.212;6.980;2022-12-10T07:16:02;76.30;;;30.13;;
50821;SDS011;36794;51.212;6.980;2022-12-10T07:18:42;87.80;;;32.37;;
50821;SDS011;36794;51.212;6.980;2022-12-10T07:23:42;86.00;;;34.63;;
50821;SDS011;36794;51.212;6.980;2022-12-10T07:26:08;98.20;;;37.60;;
50821;SDS011;36794;51.212;6.980;2022-12-10T07:28:34;106.43;;;40.00;;
50821;SDS011;36794;51.212;6.980;2022-12-10T07:31:01;99.00;;;35.07;;
50821;SDS011;36794;51.212;6.980;2022-12-10T07:33:27;103.10;;;37.47;;
50821;SDS011;36794;51.212;6.980;2022-12-10T07:35:53;98.83;;;37.43;;
50821;SDS011;36794;51.212;6.980;2022-12-10T07:38:19;101.07;;;38.10;;
50821;SDS011;36794;51.212;6.980;2022-12-10T07:40:44;104.97;;;38.00;;
50821;SDS011;36794;51.212;6.980;2022-12-10T07:43:10;105.50;;;38.33;;
50821;SDS011;36794;51.212;6.980;2022-12-10T07:45:36;100.13;;;39.17;;
50821;SDS011;36794;51.212;6.980;2022-12-10T07:48:02;105.83;;;37.70;;
50821;SDS011;36794;51.212;6.980;2022-12-10T07:50:28;98.23;;;37.07;;
50821;SDS011;36794;51.212;6.980;2022-12-10T07:52:54;101.67;;;38.00;;
50821;SDS011;36794;51.212;6.980;2022-12-10T07:55:20;109.50;;;40.40;;
50821;SDS011;36794;51.212;6.980;2022-12-10T07:57:46;110.30;;;39.97;;
50821;SDS011;36794;51.212;6.980;2022-12-10T08:00:12;105.07;;;41.80;;
50821;SDS011;36794;51.212;6.980;2022-12-10T08:02:38;110.33;;;39.40;;
50821;SDS011;36794;51.212;6.980;2022-12-10T08:05:04;115.33;;;41.13;;
50821;SDS011;36794;51.212;6.980;2022-12-10T08:07:30;104.00;;;40.00;;
50821;SDS011;36794;51.212;6.980;2022-12-10T08:09:56;113.70;;;38.43;;
50821;SDS011;36794;51.212;6.980;2022-12-10T08:12:22;111.47;;;39.03;;
50821;SDS011;36794;51.212;6.980;2022-12-10T08:14:48;105.03;;;38.27;;
50821;SDS011;36794;51.212;6.980;2022-12-10T08:17:14;106.90;;;40.00;;
50821;SDS011;36794;51.212;6.980;2022-12-10T08:19:40;109.90;;;39.80;;
50821;SDS011;36794;51.212;6.980;2022-12-10T08:22:06;103.70;;;38.97;;
50821;SDS011;36794;51.212;6.980;2022-12-10T08:24:32;113.27;;;39.73;;
50821;SDS011;36794;51.212;6.980;2022-12-10T08:26:58;101.97;;;39.50;;
50821;SDS011;36794;51.212;6.980;2022-12-10T08:29:24;99.67;;;38.10;;
50821;SDS011;36794;51.212;6.980;2022-12-10T08:31:50;97.17;;;38.83;;
50821;SDS011;36794;51.212;6.980;2022-12-10T08:34:17;102.40;;;39.83;;
50821;SDS011;36794;51.212;6.980;2022-12-10T08:36:43;104.07;;;39.70;;
50821;SDS011;36794;51.212;6.980;2022-12-10T08:39:09;101.13;;;39.83;;
50821;SDS011;36794;51.212;6.980;2022-12-10T08:41:40;94.50;;;37.37;;
50821;SDS011;36794;51.212;6.980;2022-12-10T08:44:06;104.70;;;40.53;;
50821;SDS011;36794;51.212;6.980;2022-12-10T08:46:32;95.63;;;39.17;;
50821;SDS011;36794;51.212;6.980;2022-12-10T08:48:58;109.57;;;40.47;;
50821;SDS011;36794;51.212;6.980;2022-12-10T08:51:24;101.07;;;40.37;;
50821;SDS011;36794;51.212;6.980;2022-12-10T08:53:50;101.27;;;38.80;;
50821;SDS011;36794;51.212;6.980;2022-12-10T08:56:16;100.30;;;40.73;;
50821;SDS011;36794;51.212;6.980;2022-12-10T08:58:42;90.27;;;38.90;;
50821;SDS011;36794;51.212;6.980;2022-12-10T09:01:08;91.30;;;38.53;;
50821;SDS011;36794;51.212;6.980;2022-12-10T09:03:35;95.20;;;37.77;;
50821;SDS011;36794;51.212;6.980;2022-12-10T09:06:02;102.63;;;39.17;;
50821;SDS011;36794;51.212;6.980;2022-12-10T09:08:28;104.87;;;40.33;;
50821;SDS011;36794;51.212;6.980;2022-12-10T09:10:54;86.30;;;35.87;;
50821;SDS011;36794;51.212;6.980;2022-12-10T09:13:20;105.93;;;40.13;;
50821;SDS011;36794;51.212;6.980;2022-12-10T09:15:50;90.07;;;38.60;;
50821;SDS011;36794;51.212;6.980;2022-12-10T09:18:16;92.70;;;38.37;;
50821;SDS011;36794;51.212;6.980;2022-12-10T09:20:42;94.50;;;38.27;;
50821;SDS011;36794;51.212;6.980;2022-12-10T09:23:08;95.30;;;39.53;;
50821;SDS011;36794;51.212;6.980;2022-12-10T09:25:34;95.87;;;39.40;;
50821;SDS011;36794;51.212;6.980;2022-12-10T09:28:00;91.77;;;39.03;;
50821;SDS011;36794;51.212;6.980;2022-12-10T09:30:26;96.87;;;39.10;;
50821;SDS011;36794;51.212;6.980;2022-12-10T09:32:52;95.17;;;38.53;;
50821;SDS011;36794;51.212;6.980;2022-12-10T09:35:18;87.77;;;37.87;;
50821;SDS011;36794;51.212;6.980;2022-12-10T09:37:44;85.57;;;36.80;;
50821;SDS011;36794;51.212;6.980;2022-12-10T09:40:14;97.80;;;40.37;;
50821;SDS011;36794;51.212;6.980;2022-12-10T09:47:39;86.87;;;36.83;;
50821;SDS011;36794;51.212;6.980;2022-12-10T09:50:16;91.23;;;39.20;;
50821;SDS011;36794;51.212;6.980;2022-12-10T09:52:45;88.00;;;38.10;;
50821;SDS011;36794;51.212;6.980;2022-12-10T09:55:24;94.70;;;37.90;;
50821;SDS011;36794;51.212;6.980;2022-12-10T09:57:51;85.70;;;36.47;;
50821;SDS011;36794;51.212;6.980;2022-12-10T10:02:48;93.10;;;38.43;;
50821;SDS011;36794;51.212;6.980;2022-12-10T10:05:19;86.13;;;36.17;;
50821;SDS011;36794;51.212;6.980;2022-12-10T10:07:56;90.70;;;38.17;;
50821;SDS011;36794;51.212;6.980;2022-12-10T10:12:54;96.13;;;38.90;;
50821;SDS011;36794;51.212;6.980;2022-12-10T10:15:24;90.77;;;38.40;;
50821;SDS011;36794;51.212;6.980;2022-12-10T10:17:52;90.83;;;35.67;;
50821;SDS011;36794;51.212;6.980;2022-12-10T10:20:19;87.97;;;37.03;;
50821;SDS011;36794;51.212;6.980;2022-12-10T10:22:45;86.47;;;36.87;;
50821;SDS011;36794;51.212;6.980;2022-12-10T10:25:15;82.67;;;34.73;;
50821;SDS011;36794;51.212;6.980;2022-12-10T10:27:42;87.50;;;36.07;;
50821;SDS011;36794;51.212;6.980;2022-12-10T10:30:13;87.70;;;34.90;;
50821;SDS011;36794;51.212;6.980;2022-12-10T10:35:18;86.07;;;36.53;;
50821;SDS011;36794;51.212;6.980;2022-12-10T10:37:44;90.45;;;37.15;;
50821;SDS011;36794;51.212;6.980;2022-12-10T10:40:27;78.00;;;33.13;;
50821;SDS011;36794;51.212;6.980;2022-12-10T10:42:55;80.15;;;34.42;;
50821;SDS011;36794;51.212;6.980;2022-12-10T10:50:45;87.50;;;36.37;;
50821;SDS011;36794;51.212;6.980;2022-12-10T10:56:01;90.45;;;34.80;;
50821;SDS011;36794;51.212;6.980;2022-12-10T10:58:30;77.70;;;36.97;;
50821;SDS011;36794;51.212;6.980;2022-12-10T11:00:57;83.97;;;36.97;;
50821;SDS011;36794;51.212;6.980;2022-12-10T11:03:24;90.53;;;37.90;;
50821;SDS011;36794;51.212;6.980;2022-12-10T11:05:50;95.20;;;40.50;;
50821;SDS011;36794;51.212;6.980;2022-12-10T11:08:17;100.87;;;41.03;;
50821;SDS011;36794;51.212;6.980;2022-12-10T11:10:50;94.87;;;39.47;;
50821;SDS011;36794;51.212;6.980;2022-12-10T11:13:23;95.50;;;37.17;;
50821;SDS011;36794;51.212;6.980;2022-12-10T11:15:55;97.07;;;38.83;;
50821;SDS011;36794;51.212;6.980;2022-12-10T11:20:57;94.33;;;37.90;;
50821;SDS011;36794;51.212;6.980;2022-12-10T11:23:26;109.33;;;42.00;;
50821;SDS011;36794;51.212;6.980;2022-12-10T11:26:05;94.23;;;39.50;;
50821;SDS011;36794;51.212;6.980;2022-12-10T11:33:41;97.10;;;41.03;;
50821;SDS011;36794;51.212;6.980;2022-12-10T11:38:50;88.13;;;35.93;;
50821;SDS011;36794;51.212;6.980;2022-12-10T11:43:53;75.80;;;30.30;;
50821;SDS011;36794;51.212;6.980;2022-12-10T11:51:42;75.70;;;34.37;;
50821;SDS011;36794;51.212;6.980;2022-12-10T11:54:13;79.70;;;31.33;;
50821;SDS011;36794;51.212;6.980;2022-12-10T11:56:47;69.67;;;31.27;;
50821;SDS011;36794;51.212;6.980;2022-12-10T12:04:25;63.97;;;28.37;;
50821;SDS011;36794;51.212;6.980;2022-12-10T12:14:58;69.23;;;29.07;;
50821;SDS011;36794;51.212;6.980;2022-12-10T12:17:32;73.47;;;32.20;;
50821;SDS011;36794;51.212;6.980;2022-12-10T12:20:05;70.82;;;30.02;;
50821;SDS011;36794;51.212;6.980;2022-12-10T12:22:39;70.83;;;29.43;;
50821;SDS011;36794;51.212;6.980;2022-12-10T12:27:41;69.83;;;29.77;;
50821;SDS011;36794;51.212;6.980;2022-12-10T12:30:13;82.50;;;33.00;;
50821;SDS011;36794;51.212;6.980;2022-12-10T12:33:01;69.27;;;29.33;;
50821;SDS011;36794;51.212;6.980;2022-12-10T12:38:01;63.90;;;29.00;;
50821;SDS011;36794;51.212;6.980;2022-12-10T12:40:30;65.07;;;29.83;;
50821;SDS011;36794;51.212;6.980;2022-12-10T12:42:59;65.43;;;29.80;;
50821;SDS011;36794;51.212;6.980;2022-12-10T12:45:32;66.73;;;28.17;;
50821;SDS011;36794;51.212;6.980;2022-12-10T12:48:09;69.20;;;31.20;;
50821;SDS011;36794;51.212;6.980;2022-12-10T12:50:47;72.60;;;31.50;;
50821;SDS011;36794;51.212;6.980;2022-12-10T12:53:15;70.40;;;31.67;;
50821;SDS011;36794;51.212;6.980;2022-12-10T13:00:46;59.17;;;28.07;;
50821;SDS011;36794;51.212;6.980;2022-12-10T13:03:24;67.37;;;30.00;;
50821;SDS011;36794;51.212;6.980;2022-12-10T13:05:53;66.57;;;30.50;;
50821;SDS011;36794;51.212;6.980;2022-12-10T13:13:31;62.35;;;28.25;;
50821;SDS011;36794;51.212;6.980;2022-12-10T13:18:42;64.93;;;27.45;;
50821;SDS011;36794;51.212;6.980;2022-12-10T13:21:16;64.53;;;29.00;;
50821;SDS011;36794;51.212;6.980;2022-12-10T13:26:26;63.30;;;27.73;;
50821;SDS011;36794;51.212;6.980;2022-12-10T13:28:53;66.13;;;28.80;;
50821;SDS011;36794;51.212;6.980;2022-12-10T13:31:33;68.10;;;28.73;;
50821;SDS011;36794;51.212;6.980;2022-12-10T13:41:30;62.40;;;29.03;;
50821;SDS011;36794;51.212;6.980;2022-12-10T13:46:51;69.07;;;30.10;;
50821;SDS011;36794;51.212;6.980;2022-12-10T13:49:19;73.97;;;29.93;;
50821;SDS011;36794;51.212;6.980;2022-12-10T13:52:04;68.27;;;30.53;;
50821;SDS011;36794;51.212;6.980;2022-12-10T13:54:44;71.23;;;30.40;;
50821;SDS011;36794;51.212;6.980;2022-12-10T14:00:01;72.97;;;30.40;;
50821;SDS011;36794;51.212;6.980;2022-12-10T14:02:38;70.07;;;30.70;;
50821;SDS011;36794;51.212;6.980;2022-12-10T14:05:20;58.80;;;27.10;;
50821;SDS011;36794;51.212;6.980;2022-12-10T14:07:49;68.13;;;30.40;;
50821;SDS011;36794;51.212;6.980;2022-12-10T14:10:16;72.37;;;29.73;;
50821;SDS011;36794;51.212;6.980;2022-12-10T14:12:44;75.47;;;30.97;;
50821;SDS011;36794;51.212;6.980;2022-12-10T14:15:20;74.83;;;31.90;;
50821;SDS011;36794;51.212;6.980;2022-12-10T14:17:48;72.03;;;30.53;;
50821;SDS011;36794;51.212;6.980;2022-12-10T14:20:19;80.40;;;32.90;;
50821;SDS011;36794;51.212;6.980;2022-12-10T14:22:48;82.67;;;32.23;;
50821;SDS011;36794;51.212;6.980;2022-12-10T14:25:18;71.37;;;31.03;;
50821;SDS011;36794;51.212;6.980;2022-12-10T14:27:49;74.30;;;31.60;;
50821;SDS011;36794;51.212;6.980;2022-12-10T14:32:45;79.00;;;31.80;;
50821;SDS011;36794;51.212;6.980;2022-12-10T14:35:13;75.43;;;31.60;;
50821;SDS011;36794;51.212;6.980;2022-12-10T14:37:40;78.27;;;32.90;;
50821;SDS011;36794;51.212;6.980;2022-12-10T14:40:07;83.77;;;35.83;;
50821;SDS011;36794;51.212;6.980;2022-12-10T14:42:33;85.70;;;34.43;;
50821;SDS011;36794;51.212;6.980;2022-12-10T14:45:00;84.87;;;34.40;;
50821;SDS011;36794;51.212;6.980;2022-12-10T14:47:31;85.03;;;35.13;;
50821;SDS011;36794;51.212;6.980;2022-12-10T14:49:58;81.90;;;34.27;;
50821;SDS011;36794;51.212;6.980;2022-12-10T14:52:31;87.30;;;36.33;;
50821;SDS011;36794;51.212;6.980;2022-12-10T14:54:57;87.70;;;36.10;;
50821;SDS011;36794;51.212;6.980;2022-12-10T14:57:24;97.17;;;39.87;;
50821;SDS011;36794;51.212;6.980;2022-12-10T15:02:26;105.57;;;41.53;;
50821;SDS011;36794;51.212;6.980;2022-12-10T15:04:53;96.13;;;40.27;;
50821;SDS011;36794;51.212;6.980;2022-12-10T15:07:20;102.87;;;42.07;;
50821;SDS011;36794;51.212;6.980;2022-12-10T15:09:48;105.50;;;42.30;;
50821;SDS011;36794;51.212;6.980;2022-12-10T15:13:00;100.27;;;40.27;;
50821;SDS011;36794;51.212;6.980;2022-12-10T15:15:04;99.97;;;39.37;;
50821;SDS011;36794;51.212;6.980;2022-12-10T15:17:35;96.23;;;37.27;;
50821;SDS011;36794;51.212;6.980;2022-12-10T15:20:02;95.67;;;38.47;;
50821;SDS011;36794;51.212;6.980;2022-12-10T15:22:28;99.03;;;40.43;;
50821;SDS011;36794;51.212;6.980;2022-12-10T15:24:55;101.70;;;40.87;;
50821;SDS011;36794;51.212;6.980;2022-12-10T15:27:24;101.60;;;39.00;;
50821;SDS011;36794;51.212;6.980;2022-12-10T15:29:51;102.97;;;40.60;;
50821;SDS011;36794;51.212;6.980;2022-12-10T15:32:22;97.63;;;37.83;;
50821;SDS011;36794;51.212;6.980;2022-12-10T15:34:52;93.70;;;37.43;;
50821;SDS011;36794;51.212;6.980;2022-12-10T15:37:21;96.43;;;38.67;;
50821;SDS011;36794;51.212;6.980;2022-12-10T15:39:48;107.80;;;40.47;;
50821;SDS011;36794;51.212;6.980;2022-12-10T15:47:36;101.83;;;37.53;;
50821;SDS011;36794;51.212;6.980;2022-12-10T15:50:04;90.40;;;37.10;;
50821;SDS011;36794;51.212;6.980;2022-12-10T15:52:30;106.37;;;39.43;;
50821;SDS011;36794;51.212;6.980;2022-12-10T15:54:59;107.97;;;39.87;;
50821;SDS011;36794;51.212;6.980;2022-12-10T15:57:36;106.80;;;40.37;;
50821;SDS011;36794;51.212;6.980;2022-12-10T16:00:05;101.37;;;39.97;;
50821;SDS011;36794;51.212;6.980;2022-12-10T16:04:57;99.87;;;40.57;;
50821;SDS011;36794;51.212;6.980;2022-12-10T16:07:23;100.90;;;40.37;;
50821;SDS011;36794;51.212;6.980;2022-12-10T16:09:49;105.30;;;40.53;;
50821;SDS011;36794;51.212;6.980;2022-12-10T16:12:16;104.77;;;40.10;;
50821;SDS011;36794;51.212;6.980;2022-12-10T16:14:52;105.07;;;39.37;;
50821;SDS011;36794;51.212;6.980;2022-12-10T16:17:21;93.60;;;39.40;;
50821;SDS011;36794;51.212;6.980;2022-12-10T16:19:47;100.03;;;40.93;;
50821;SDS011;36794;51.212;6.980;2022-12-10T16:22:13;94.77;;;38.47;;
50821;SDS011;36794;51.212;6.980;2022-12-10T16:24:39;99.47;;;38.83;;
50821;SDS011;36794;51.212;6.980;2022-12-10T16:27:14;103.13;;;42.10;;
50821;SDS011;36794;51.212;6.980;2022-12-10T16:29:41;95.70;;;39.57;;
50821;SDS011;36794;51.212;6.980;2022-12-10T16:32:08;88.73;;;37.03;;